createdAt,value
2023-01-27T01:48:52.079Z,100727.27
2023-01-27T01:51:32.522Z,100743.50
2023-01-27T01:54:07.177Z,100735.68
2023-01-27T01:56:43.212Z,100718.80
2023-01-27T01:59:20.385Z,100710.85
2023-01-27T02:01:51.131Z,100695.77
2023-01-27T02:04:24.089Z,100686.27
2023-01-27T02:07:12.741Z,100681.40
2023-01-27T02:09:41.651Z,100668.05
2023-01-27T02:12:10.413Z,100650.80
2023-01-27T02:14:40.343Z,100628.45
2023-01-27T02:17:10.129Z,100608.94
2023-01-27T02:20:19.596Z,100592.71
2023-01-27T02:23:07.771Z,100577.71
2023-01-27T02:25:41.037Z,100543.21
2023-01-27T02:28:09.857Z,100508.70
2023-01-27T02:30:38.565Z,100468.70
2023-01-27T02:33:15.288Z,100431.23
2023-01-27T02:35:44.192Z,100387.27
2023-01-27T02:38:14.282Z,100323.52
2023-01-27T02:40:44.116Z,100256.31
2023-01-27T02:43:14.993Z,100211.13
2023-01-27T02:45:47.166Z,100199.25
2023-01-27T02:48:16.032Z,100215.00
2023-01-27T02:50:44.766Z,100248.27
2023-01-27T02:53:13.741Z,100280.27
2023-01-27T02:55:43.070Z,100318.15
2023-01-27T02:58:12.257Z,100361.42
2023-01-27T03:00:49.147Z,100400.98
2023-01-27T03:03:18.006Z,100430.92
2023-01-27T03:05:47.876Z,100458.05
2023-01-27T03:08:17.741Z,100474.84
2023-01-27T03:10:50.434Z,100488.50
2023-01-27T03:13:23.981Z,100507.44
2023-01-27T03:16:14.581Z,100522.54
2023-01-27T03:18:47.611Z,100533.27
2023-01-27T03:21:17.708Z,100542.02
2023-01-27T03:23:49.277Z,100551.61
2023-01-27T03:26:21.792Z,100559.05
2023-01-27T03:29:14.199Z,100567.98
2023-01-27T03:31:44.972Z,100577.31
2023-01-27T03:34:13.943Z,100576.71
2023-01-27T03:37:07.889Z,100573.02
2023-01-27T03:39:55.584Z,100575.11
2023-01-27T03:42:43.573Z,100581.23
2023-01-27T03:45:31.339Z,100589.02
2023-01-27T03:47:59.889Z,100588.71
2023-01-27T03:50:38.080Z,100581.63
2023-01-27T03:53:07.429Z,100584.14
2023-01-27T03:55:36.954Z,100579.30
2023-01-27T03:58:20.261Z,100574.42
2023-01-27T04:00:54.105Z,100566.00
2023-01-27T04:03:42.984Z,100560.26
2023-01-27T04:06:33.208Z,100559.80
2023-01-27T04:09:02.360Z,100560.20
2023-01-27T04:11:49.572Z,100561.30
2023-01-27T04:14:18.496Z,100561.08
2023-01-27T04:16:47.964Z,100559.66
2023-01-27T04:19:16.904Z,100560.34
2023-01-27T04:21:45.763Z,100556.82
2023-01-27T04:24:18.088Z,100554.76
2023-01-27T04:26:47.136Z,100560.98
2023-01-27T04:29:16.524Z,100554.69
2023-01-27T04:31:45.176Z,100559.91
2023-01-27T04:34:14.300Z,100560.07
2023-01-27T04:36:43.199Z,100562.12
2023-01-27T04:39:12.013Z,100562.70
2023-01-27T04:41:41.029Z,100565.02
2023-01-27T04:44:10.599Z,100569.41
2023-01-27T04:46:39.629Z,100576.33
2023-01-27T04:49:08.448Z,100578.33
2023-01-27T04:51:37.331Z,100578.73
2023-01-27T04:54:06.319Z,100571.55
2023-01-27T04:56:37.436Z,100570.55
2023-01-27T04:59:11.203Z,100569.86
2023-01-27T05:01:39.971Z,100574.98
2023-01-27T05:04:08.610Z,100562.80
2023-01-27T05:06:38.650Z,100551.90
2023-01-27T05:09:07.999Z,100550.92
2023-01-27T05:11:36.679Z,100543.61
2023-01-27T05:14:08.324Z,100536.61
2023-01-27T05:16:38.614Z,100531.34
2023-01-27T05:19:08.684Z,100528.23
2023-01-27T05:21:38.171Z,100524.65
2023-01-27T05:24:06.872Z,100520.17
2023-01-27T05:26:37.011Z,100516.23
2023-01-27T05:29:05.916Z,100513.00
2023-01-27T05:31:35.309Z,100507.42
2023-01-27T05:34:04.134Z,100501.48
2023-01-27T05:36:34.032Z,100498.77
2023-01-27T05:39:02.608Z,100486.23
2023-01-27T05:41:31.627Z,100478.86
2023-01-27T05:44:00.621Z,100469.44
2023-01-27T05:46:30.653Z,100470.95
2023-01-27T05:49:00.660Z,100468.48
2023-01-27T05:51:30.913Z,100468.70
2023-01-27T05:53:59.607Z,100468.33
2023-01-27T05:56:28.387Z,100466.66
2023-01-27T05:59:01.628Z,100460.66
2023-01-27T06:01:31.909Z,100458.51
2023-01-27T06:04:00.719Z,100458.77
2023-01-27T06:06:30.772Z,100456.50
2023-01-27T06:08:59.827Z,100456.04
2023-01-27T06:11:28.534Z,100455.80
2023-01-27T06:14:02.652Z,100458.80
2023-01-27T06:16:33.088Z,100454.91
2023-01-27T06:19:01.801Z,100452.08
2023-01-27T06:21:31.441Z,100447.48
2023-01-27T06:24:00.282Z,100446.73
2023-01-27T06:26:29.537Z,100446.33
2023-01-27T06:28:58.276Z,100429.89
2023-01-27T06:31:27.770Z,100424.65
2023-01-27T06:33:56.748Z,100412.59
2023-01-27T06:36:25.532Z,100401.49
2023-01-27T06:38:55.007Z,100400.13
2023-01-27T06:41:25.169Z,100400.58
2023-01-27T06:43:53.910Z,100394.98
2023-01-27T06:46:22.739Z,100391.67
2023-01-27T06:48:53.414Z,100393.02
2023-01-27T06:51:22.459Z,100395.84
2023-01-27T06:53:51.355Z,100387.16
2023-01-27T06:56:20.172Z,100383.70
2023-01-27T06:58:48.677Z,100377.86
2023-01-27T07:01:17.697Z,100373.59
2023-01-27T07:03:46.566Z,100368.14
2023-01-27T07:06:16.430Z,100358.34
2023-01-27T07:08:47.824Z,100357.33
2023-01-27T07:11:16.517Z,100350.50
2023-01-27T07:13:45.419Z,100344.09
2023-01-27T07:16:14.317Z,100339.59
2023-01-27T07:18:43.204Z,100330.24
2023-01-27T07:21:11.681Z,100326.02
2023-01-27T07:23:40.374Z,100322.88
2023-01-27T07:26:23.342Z,100313.91
2023-01-27T07:28:53.547Z,100300.92
2023-01-27T07:31:22.870Z,100289.20
2023-01-27T07:33:53.865Z,100275.89
2023-01-27T07:36:22.563Z,100258.45
2023-01-27T07:38:51.398Z,100247.48
2023-01-27T07:41:20.179Z,100242.46
2023-01-27T07:43:51.504Z,100235.52
2023-01-27T07:46:21.424Z,100239.02
2023-01-27T07:48:50.653Z,100246.73
2023-01-27T07:51:21.135Z,100238.66
2023-01-27T07:53:49.749Z,100246.70
2023-01-27T07:56:18.385Z,100248.77
2023-01-27T07:58:47.066Z,100254.16
2023-01-27T11:16:02.505Z,100510.65
2023-01-27T11:18:33.150Z,100535.99
2023-01-27T11:21:06.258Z,100522.52
2023-01-27T11:23:39.329Z,100510.41
2023-01-27T11:26:44.120Z,100490.67
2023-01-27T11:29:23.017Z,100465.95
2023-01-27T11:32:19.530Z,100437.73
2023-01-27T11:35:01.298Z,100405.85
2023-01-27T11:37:41.423Z,100365.92
2023-01-27T11:40:17.574Z,100303.70
2023-01-27T11:42:46.992Z,100238.11
2023-01-27T11:45:20.392Z,100153.06
2023-01-27T11:47:51.544Z,100074.66
2023-01-27T11:50:21.223Z,100071.65
2023-01-27T11:52:51.542Z,100137.20
2023-01-27T11:55:27.546Z,100205.36
2023-01-27T11:58:26.425Z,100274.68
2023-01-27T12:00:57.964Z,100344.44
2023-01-27T12:03:42.171Z,100384.66
2023-01-27T12:06:17.094Z,100420.17
2023-01-27T12:08:46.953Z,100442.42
2023-01-27T12:11:26.707Z,100457.95
2023-01-27T12:13:57.124Z,100471.51
2023-01-27T12:16:49.648Z,100476.23
2023-01-27T12:19:33.055Z,100481.38
2023-01-27T12:22:07.322Z,100489.06
2023-01-27T12:24:38.867Z,100505.37
2023-01-27T12:27:07.573Z,100514.77
2023-01-27T12:29:47.332Z,100521.83
2023-01-27T12:32:18.451Z,100530.52
2023-01-27T12:34:50.081Z,100533.24
2023-01-27T12:37:31.760Z,100536.50
2023-01-27T12:41:16.334Z,100536.05
2023-01-27T12:43:52.657Z,100544.26
2023-01-27T12:46:23.618Z,100551.56
2023-01-27T12:48:55.028Z,100557.57
2023-01-27T12:51:25.026Z,100560.23
2023-01-27T12:54:14.136Z,100567.95
2023-01-27T12:56:44.323Z,100583.28
2023-01-27T12:59:17.603Z,100592.84
2023-01-27T13:02:16.862Z,100597.79
2023-01-27T13:04:53.531Z,100603.67
2023-01-27T13:07:30.378Z,100613.98
2023-01-27T13:10:03.998Z,100615.58
2023-01-27T13:12:48.236Z,100616.97
2023-01-27T13:15:19.460Z,100619.46
2023-01-27T13:17:56.053Z,100621.42
2023-01-27T13:20:42.073Z,100627.02
2023-01-27T13:23:21.608Z,100638.29
2023-01-27T13:26:07.794Z,100651.89
2023-01-27T13:28:55.399Z,100647.55
2023-01-27T13:31:33.693Z,100657.36
2023-01-27T13:34:37.151Z,100665.33
2023-01-27T13:37:15.142Z,100668.98
2023-01-27T13:40:19.621Z,100674.56
2023-01-27T13:42:52.313Z,100677.50
2023-01-27T13:45:40.852Z,100681.69
2023-01-27T13:48:27.166Z,100686.33
2023-01-27T13:51:04.483Z,100693.32
2023-01-27T13:53:34.702Z,100701.09
2023-01-27T13:56:06.441Z,100707.45
2023-01-27T13:59:12.980Z,100716.48
2023-01-27T14:02:20.598Z,100727.11
2023-01-27T14:05:21.561Z,100723.35
2023-01-27T14:08:02.933Z,100722.33
2023-01-27T14:10:41.653Z,100727.48
2023-01-27T14:13:38.633Z,100730.19
2023-01-27T14:16:28.442Z,100732.35
2023-01-27T14:19:26.158Z,100738.04
2023-01-27T14:22:00.384Z,100733.42
2023-01-27T14:25:00.307Z,100733.79
2023-01-27T14:27:37.027Z,100729.14
2023-01-27T14:30:18.166Z,100726.74
2023-01-27T14:32:53.453Z,100731.18
2023-01-27T14:35:52.284Z,100729.98
2023-01-27T14:38:29.485Z,100729.55
2023-01-27T14:41:07.320Z,100725.98
2023-01-27T14:43:58.957Z,100722.17
2023-01-27T14:46:37.346Z,100726.66
2023-01-27T14:49:09.281Z,100727.56
2023-01-27T14:52:01.409Z,100726.04
2023-01-27T14:54:45.786Z,100731.44
2023-01-27T14:57:26.189Z,100734.20
2023-01-27T15:00:20.668Z,100740.41
2023-01-27T15:02:59.824Z,100746.36
2023-01-27T15:05:31.423Z,100745.95
2023-01-27T15:08:12.119Z,100745.77
2023-01-27T15:10:51.464Z,100742.53
2023-01-27T15:13:30.004Z,100741.34
2023-01-27T15:16:09.324Z,100737.38
2023-01-27T15:19:03.958Z,100732.02
2023-01-27T15:21:46.768Z,100728.66
2023-01-27T15:24:42.625Z,100727.73
2023-01-27T15:27:21.356Z,100726.13
2023-01-27T15:29:50.124Z,100731.29
2023-01-27T15:32:20.145Z,100728.09
2023-01-27T15:34:53.489Z,100726.71
2023-01-27T15:37:28.503Z,100731.94
2023-01-27T15:40:04.936Z,100738.63
2023-01-27T15:43:00.792Z,100740.46
2023-01-27T15:45:32.077Z,100739.50
2023-01-27T15:48:20.709Z,100740.56
2023-01-27T15:51:00.020Z,100743.42
2023-01-27T15:53:32.669Z,100739.98
2023-01-27T15:56:09.931Z,100740.02
2023-01-27T21:12:02.019Z,100425.76
2023-01-27T21:14:34.604Z,100427.06
2023-01-27T21:17:05.570Z,100418.60
2023-01-27T21:19:34.623Z,100408.84
2023-01-27T21:22:03.571Z,100402.40
2023-01-27T21:24:32.993Z,100399.11
2023-01-27T21:27:01.905Z,100395.88
2023-01-27T21:29:32.414Z,100394.03
2023-01-27T21:32:01.528Z,100387.95
2023-01-27T21:34:30.636Z,100376.85
2023-01-27T21:36:59.895Z,100370.89
2023-01-27T21:39:28.792Z,100374.27
2023-01-27T21:41:57.689Z,100370.94
2023-01-27T21:44:50.117Z,100358.38
2023-01-27T21:47:19.262Z,100357.48
2023-01-27T21:50:04.283Z,100350.06
2023-01-27T21:52:39.421Z,100337.02
2023-01-27T21:55:22.404Z,100328.35
2023-01-27T21:57:52.306Z,100315.90
2023-01-27T22:00:23.061Z,100310.81
2023-01-27T22:02:56.186Z,100306.36
2023-01-27T22:05:24.930Z,100295.98
2023-01-27T22:07:54.010Z,100287.40
2023-01-27T22:10:26.871Z,100282.31
2023-01-27T22:12:59.919Z,100276.51
2023-01-27T22:15:29.219Z,100263.94
2023-01-27T22:17:58.440Z,100258.40
2023-01-27T22:20:27.506Z,100253.46
2023-01-27T22:22:56.404Z,100250.94
2023-01-27T22:25:27.425Z,100253.85
2023-01-27T22:27:56.375Z,100263.82
2023-01-27T22:30:25.037Z,100275.93
2023-01-27T22:32:53.851Z,100290.80
2023-01-27T22:35:22.883Z,100309.70
2023-01-27T22:37:53.213Z,100321.46
2023-01-27T22:40:23.502Z,100338.30
2023-01-27T22:42:52.260Z,100352.77
2023-01-27T22:45:21.092Z,100369.15
2023-01-27T22:47:50.012Z,100384.40
2023-01-27T22:50:19.531Z,100399.34
2023-01-27T22:52:48.322Z,100413.30
2023-01-27T22:55:17.388Z,100428.86
2023-01-27T22:57:48.132Z,100440.20
2023-01-27T23:00:17.585Z,100451.51
2023-01-27T23:02:46.389Z,100456.71
2023-01-27T23:05:15.629Z,100468.02
2023-01-27T23:07:45.510Z,100474.55
2023-01-27T23:10:14.421Z,100473.96
2023-01-27T23:12:43.469Z,100475.98
2023-01-27T23:15:12.327Z,100477.33
2023-01-27T23:17:43.239Z,100475.69
2023-01-27T23:20:12.407Z,100474.16
2023-01-27T23:22:41.832Z,100478.80
2023-01-27T23:25:11.929Z,100484.69
2023-01-27T23:27:41.602Z,100489.35
2023-01-27T23:30:11.383Z,100486.83
2023-01-27T23:32:40.943Z,100489.55
2023-01-27T23:35:09.817Z,100494.09
2023-01-27T23:37:38.552Z,100500.42
2023-01-27T23:40:08.015Z,100500.93
2023-01-27T23:42:36.842Z,100502.73
2023-01-27T23:45:05.881Z,100504.32
2023-01-27T23:47:34.608Z,100501.38
2023-01-27T23:50:03.538Z,100497.21
2023-01-27T23:52:35.041Z,100494.11
2023-01-27T23:55:04.122Z,100498.20
2023-01-27T23:57:33.097Z,100497.33
